sensor_id;sensor_type;location;lat;lon;timestamp;temperature;humidity
148;DHT22;142;50.652;12.216;2023-02-01T00:00:00;5.90;34.00
148;DHT22;142;50.652;12.216;2023-02-01T00:02:27;5.90;34.00
148;DHT22;142;50.652;12.216;2023-02-01T00:04:54;5.90;34.20
148;DHT22;142;50.652;12.216;2023-02-01T00:07:21;5.90;33.90
148;DHT22;142;50.652;12.216;2023-02-01T00:09:49;5.90;34.00
148;DHT22;142;50.652;12.216;2023-02-01T00:12:15;5.90;34.00
148;DHT22;142;50.652;12.216;2023-02-01T00:14:44;5.90;34.00
148;DHT22;142;50.652;12.216;2023-02-01T00:17:13;5.80;34.00
148;DHT22;142;50.652;12.216;2023-02-01T00:19:41;5.80;34.10
148;DHT22;142;50.652;12.216;2023-02-01T00:22:08;5.80;34.00
148;DHT22;142;50.652;12.216;2023-02-01T00:24:35;5.80;34.00
148;DHT22;142;50.652;12.216;2023-02-01T00:27:02;5.80;34.00
148;DHT22;142;50.652;12.216;2023-02-01T00:29:30;5.80;34.10
148;DHT22;142;50.652;12.216;2023-02-01T00:31:58;5.80;34.10
148;DHT22;142;50.652;12.216;2023-02-01T00:34:25;5.80;34.00
148;DHT22;142;50.652;12.216;2023-02-01T00:36:52;5.90;34.00
148;DHT22;142;50.652;12.216;2023-02-01T00:39:19;5.90;33.90
148;DHT22;142;50.652;12.216;2023-02-01T00:41:46;5.90;34.10
148;DHT22;142;50.652;12.216;2023-02-01T00:44:13;5.90;34.10
148;DHT22;142;50.652;12.216;2023-02-01T00:46:40;5.90;34.10
148;DHT22;142;50.652;12.216;2023-02-01T00:49:08;5.90;34.20
148;DHT22;142;50.652;12.216;2023-02-01T00:51:36;5.90;34.00
148;DHT22;142;50.652;12.216;2023-02-01T00:54:03;5.90;34.00
148;DHT22;142;50.652;12.216;2023-02-01T00:56:30;5.90;34.00
148;DHT22;142;50.652;12.216;2023-02-01T00:58:57;5.90;34.00
148;DHT22;142;50.652;12.216;2023-02-01T01:01:26;5.90;34.00
148;DHT22;142;50.652;12.216;2023-02-01T01:03:54;6.00;34.00
148;DHT22;142;50.652;12.216;2023-02-01T01:06:25;6.00;34.00
148;DHT22;142;50.652;12.216;2023-02-01T01:08:53;6.00;33.90
148;DHT22;142;50.652;12.216;2023-02-01T01:11:22;6.00;33.90
148;DHT22;142;50.652;12.216;2023-02-01T01:13:51;5.90;33.90
148;DHT22;142;50.652;12.216;2023-02-01T01:16:19;6.00;34.00
148;DHT22;142;50.652;12.216;2023-02-01T01:18:47;6.00;33.90
148;DHT22;142;50.652;12.216;2023-02-01T01:21:15;5.90;33.90
148;DHT22;142;50.652;12.216;2023-02-01T01:23:45;5.90;34.00
148;DHT22;142;50.652;12.216;2023-02-01T01:26:14;5.90;34.00
148;DHT22;142;50.652;12.216;2023-02-01T01:28:42;5.90;34.00
148;DHT22;142;50.652;12.216;2023-02-01T01:31:09;5.90;34.10
148;DHT22;142;50.652;12.216;2023-02-01T01:33:37;6.00;33.90
148;DHT22;142;50.652;12.216;2023-02-01T01:36:05;6.00;33.90
148;DHT22;142;50.652;12.216;2023-02-01T01:38:33;5.90;33.90
148;DHT22;142;50.652;12.216;2023-02-01T01:41:03;5.90;34.00
148;DHT22;142;50.652;12.216;2023-02-01T01:43:50;5.90;33.90
148;DHT22;142;50.652;12.216;2023-02-01T01:46:19;5.80;33.90
148;DHT22;142;50.652;12.216;2023-02-01T01:48:49;5.90;33.90
148;DHT22;142;50.652;12.216;2023-02-01T01:51:19;5.80;33.90
148;DHT22;142;50.652;12.216;2023-02-01T01:53:51;5.80;34.00
148;DHT22;142;50.652;12.216;2023-02-01T01:56:22;5.80;33.90
148;DHT22;142;50.652;12.216;2023-02-01T01:58:49;5.80;34.00
148;DHT22;142;50.652;12.216;2023-02-01T02:01:17;5.80;34.00
148;DHT22;142;50.652;12.216;2023-02-01T02:03:46;5.80;34.10
148;DHT22;142;50.652;12.216;2023-02-01T02:06:21;5.80;34.00
148;DHT22;142;50.652;12.216;2023-02-01T02:08:52;5.80;34.00
148;DHT22;142;50.652;12.216;2023-02-01T02:11:19;5.80;34.00
148;DHT22;142;50.652;12.216;2023-02-01T02:13:50;5.80;34.00
148;DHT22;142;50.652;12.216;2023-02-01T02:22:40;5.80;34.20
148;DHT22;142;50.652;12.216;2023-02-01T02:25:41;5.90;34.20
148;DHT22;142;50.652;12.216;2023-02-01T02:28:22;5.80;34.20
148;DHT22;142;50.652;12.216;2023-02-01T02:31:11;5.80;34.00
148;DHT22;142;50.652;12.216;2023-02-01T02:33:52;5.80;34.20
148;DHT22;142;50.652;12.216;2023-02-01T02:36:35;5.80;34.10
148;DHT22;142;50.652;12.216;2023-02-01T02:39:07;5.80;34.00
148;DHT22;142;50.652;12.216;2023-02-01T02:41:44;5.90;34.00
148;DHT22;142;50.652;12.216;2023-02-01T02:44:37;5.90;34.00
148;DHT22;142;50.652;12.216;2023-02-01T02:47:25;6.00;34.30
148;DHT22;142;50.652;12.216;2023-02-01T02:50:06;6.00;34.10
148;DHT22;142;50.652;12.216;2023-02-01T02:52:56;6.00;34.00
148;DHT22;142;50.652;12.216;2023-02-01T02:55:43;6.00;34.00
148;DHT22;142;50.652;12.216;2023-02-01T02:58:11;6.00;34.10
148;DHT22;142;50.652;12.216;2023-02-01T03:00:57;6.00;33.90
148;DHT22;142;50.652;12.216;2023-02-01T03:03:42;5.90;34.00
148;DHT22;142;50.652;12.216;2023-02-01T03:06:36;5.80;34.00
148;DHT22;142;50.652;12.216;2023-02-01T03:09:08;5.70;34.00
148;DHT22;142;50.652;12.216;2023-02-01T03:11:37;5.70;34.10
148;DHT22;142;50.652;12.216;2023-02-01T03:14:26;5.60;34.10
148;DHT22;142;50.652;12.216;2023-02-01T03:16:59;5.60;33.90
148;DHT22;142;50.652;12.216;2023-02-01T03:19:31;5.60;34.00
148;DHT22;142;50.652;12.216;2023-02-01T03:22:03;5.60;34.10
148;DHT22;142;50.652;12.216;2023-02-01T03:24:36;5.60;34.20
148;DHT22;142;50.652;12.216;2023-02-01T03:27:08;5.60;34.10
148;DHT22;142;50.652;12.216;2023-02-01T03:29:42;5.60;34.10
148;DHT22;142;50.652;12.216;2023-02-01T03:32:11;5.70;34.00
148;DHT22;142;50.652;12.216;2023-02-01T03:34:38;5.60;34.00
148;DHT22;142;50.652;12.216;2023-02-01T03:37:10;5.60;34.10
148;DHT22;142;50.652;12.216;2023-02-01T03:39:42;5.60;34.10
148;DHT22;142;50.652;12.216;2023-02-01T03:42:14;5.70;34.20
148;DHT22;142;50.652;12.216;2023-02-01T03:44:48;5.70;34.10
148;DHT22;142;50.652;12.216;2023-02-01T03:47:19;5.80;34.30
148;DHT22;142;50.652;12.216;2023-02-01T03:49:50;5.80;34.40
148;DHT22;142;50.652;12.216;2023-02-01T03:52:23;5.80;34.00
148;DHT22;142;50.652;12.216;2023-02-01T03:54:52;5.80;34.10
148;DHT22;142;50.652;12.216;2023-02-01T03:57:27;5.70;33.90
148;DHT22;142;50.652;12.216;2023-02-01T04:00:05;5.70;34.20
148;DHT22;142;50.652;12.216;2023-02-01T04:02:33;5.70;34.20
148;DHT22;142;50.652;12.216;2023-02-01T04:05:00;5.70;34.10
148;DHT22;142;50.652;12.216;2023-02-01T04:07:28;5.70;33.90
148;DHT22;142;50.652;12.216;2023-02-01T04:09:55;5.70;33.90
148;DHT22;142;50.652;12.216;2023-02-01T04:12:23;5.70;34.10
148;DHT22;142;50.652;12.216;2023-02-01T04:14:50;5.70;33.90
148;DHT22;142;50.652;12.216;2023-02-01T04:17:17;5.60;33.90
148;DHT22;142;50.652;12.216;2023-02-01T04:19:44;5.70;33.90
148;DHT22;142;50.652;12.216;2023-02-01T04:22:12;5.70;34.00
148;DHT22;142;50.652;12.216;2023-02-01T04:24:40;5.70;33.80
148;DHT22;142;50.652;12.216;2023-02-01T04:27:07;5.70;33.80
148;DHT22;142;50.652;12.216;2023-02-01T04:29:34;5.70;33.90
148;DHT22;142;50.652;12.216;2023-02-01T04:32:01;5.70;33.80
148;DHT22;142;50.652;12.216;2023-02-01T04:34:28;5.50;33.70
148;DHT22;142;50.652;12.216;2023-02-01T04:36:56;5.30;33.90
148;DHT22;142;50.652;12.216;2023-02-01T04:39:23;5.20;33.90
148;DHT22;142;50.652;12.216;2023-02-01T04:41:51;5.20;34.00
148;DHT22;142;50.652;12.216;2023-02-01T04:44:19;5.10;34.50
148;DHT22;142;50.652;12.216;2023-02-01T04:46:47;5.00;34.60
148;DHT22;142;50.652;12.216;2023-02-01T04:49:14;4.80;34.90
148;DHT22;142;50.652;12.216;2023-02-01T04:51:41;4.80;35.10
148;DHT22;142;50.652;12.216;2023-02-01T04:54:09;4.80;35.50
148;DHT22;142;50.652;12.216;2023-02-01T04:56:37;4.70;35.60
148;DHT22;142;50.652;12.216;2023-02-01T04:59:06;4.70;35.80
148;DHT22;142;50.652;12.216;2023-02-01T05:01:34;4.70;35.90
148;DHT22;142;50.652;12.216;2023-02-01T05:04:00;4.80;36.00
148;DHT22;142;50.652;12.216;2023-02-01T05:06:28;4.80;35.90
148;DHT22;142;50.652;12.216;2023-02-01T05:08:55;4.90;36.00
148;DHT22;142;50.652;12.216;2023-02-01T05:11:22;4.90;36.00
148;DHT22;142;50.652;12.216;2023-02-01T05:14:08;5.00;36.00
148;DHT22;142;50.652;12.216;2023-02-01T05:16:35;5.00;36.00
148;DHT22;142;50.652;12.216;2023-02-01T05:19:02;5.00;35.90
148;DHT22;142;50.652;12.216;2023-02-01T05:21:29;5.00;36.00
148;DHT22;142;50.652;12.216;2023-02-01T05:23:56;5.00;35.80
148;DHT22;142;50.652;12.216;2023-02-01T05:26:46;5.10;35.90
148;DHT22;142;50.652;12.216;2023-02-01T05:29:15;5.10;35.90
148;DHT22;142;50.652;12.216;2023-02-01T05:31:44;5.20;35.90
148;DHT22;142;50.652;12.216;2023-02-01T05:34:11;5.10;35.70
148;DHT22;142;50.652;12.216;2023-02-01T05:36:39;5.20;35.70
148;DHT22;142;50.652;12.216;2023-02-01T05:39:06;5.20;35.70
148;DHT22;142;50.652;12.216;2023-02-01T05:41:34;5.20;35.60
148;DHT22;142;50.652;12.216;2023-02-01T05:44:01;5.20;35.60
148;DHT22;142;50.652;12.216;2023-02-01T05:46:29;5.20;35.50
148;DHT22;142;50.652;12.216;2023-02-01T05:48:58;5.20;35.40
148;DHT22;142;50.652;12.216;2023-02-01T05:51:25;5.20;35.30
148;DHT22;142;50.652;12.216;2023-02-01T05:53:52;5.20;35.50
148;DHT22;142;50.652;12.216;2023-02-01T05:56:19;5.20;35.20
148;DHT22;142;50.652;12.216;2023-02-01T05:58:46;5.10;35.00
148;DHT22;142;50.652;12.216;2023-02-01T06:01:13;5.10;35.10
148;DHT22;142;50.652;12.216;2023-02-01T06:03:42;5.10;35.10
148;DHT22;142;50.652;12.216;2023-02-01T06:06:09;5.10;35.00
148;DHT22;142;50.652;12.216;2023-02-01T06:08:36;5.00;34.90
148;DHT22;142;50.652;12.216;2023-02-01T06:11:05;5.10;35.10
148;DHT22;142;50.652;12.216;2023-02-01T06:13:33;5.10;34.90
148;DHT22;142;50.652;12.216;2023-02-01T06:16:01;5.10;34.90
148;DHT22;142;50.652;12.216;2023-02-01T06:18:31;5.10;34.80
148;DHT22;142;50.652;12.216;2023-02-01T06:21:00;5.20;34.90
148;DHT22;142;50.652;12.216;2023-02-01T06:23:27;5.20;34.80
148;DHT22;142;50.652;12.216;2023-02-01T06:25:59;5.10;34.50
148;DHT22;142;50.652;12.216;2023-02-01T06:28:27;5.20;34.70
148;DHT22;142;50.652;12.216;2023-02-01T06:30:54;5.30;34.60
148;DHT22;142;50.652;12.216;2023-02-01T06:33:23;5.30;34.80
148;DHT22;142;50.652;12.216;2023-02-01T06:35:56;5.30;34.60
148;DHT22;142;50.652;12.216;2023-02-01T06:38:26;5.20;34.50
148;DHT22;142;50.652;12.216;2023-02-01T06:40:54;5.20;34.50
148;DHT22;142;50.652;12.216;2023-02-01T06:43:23;5.20;34.50
148;DHT22;142;50.652;12.216;2023-02-01T06:45:51;5.30;34.50
148;DHT22;142;50.652;12.216;2023-02-01T06:48:19;5.30;34.30
148;DHT22;142;50.652;12.216;2023-02-01T06:50:46;5.30;34.30
148;DHT22;142;50.652;12.216;2023-02-01T06:53:13;5.30;34.20
148;DHT22;142;50.652;12.216;2023-02-01T06:55:51;5.30;34.40
148;DHT22;142;50.652;12.216;2023-02-01T06:58:18;5.30;34.20
148;DHT22;142;50.652;12.216;2023-02-01T07:00:46;5.30;34.30
148;DHT22;142;50.652;12.216;2023-02-01T07:03:13;5.30;34.20
148;DHT22;142;50.652;12.216;2023-02-01T07:05:41;5.30;34.40
148;DHT22;142;50.652;12.216;2023-02-01T07:08:08;5.30;34.10
148;DHT22;142;50.652;12.216;2023-02-01T07:10:35;5.30;34.60
148;DHT22;142;50.652;12.216;2023-02-01T07:13:03;5.30;34.20
148;DHT22;142;50.652;12.216;2023-02-01T07:15:31;5.30;34.40
148;DHT22;142;50.652;12.216;2023-02-01T07:17:58;5.40;34.20
148;DHT22;142;50.652;12.216;2023-02-01T07:20:26;5.40;34.20
148;DHT22;142;50.652;12.216;2023-02-01T07:22:55;5.40;34.20
148;DHT22;142;50.652;12.216;2023-02-01T07:25:23;5.50;34.20
148;DHT22;142;50.652;12.216;2023-02-01T07:27:50;5.40;34.20
148;DHT22;142;50.652;12.216;2023-02-01T07:30:19;5.40;34.10
148;DHT22;142;50.652;12.216;2023-02-01T07:32:46;5.40;34.20
148;DHT22;142;50.652;12.216;2023-02-01T07:35:14;5.40;34.10
148;DHT22;142;50.652;12.216;2023-02-01T07:37:41;5.50;34.30
148;DHT22;142;50.652;12.216;2023-02-01T07:40:09;5.50;34.10
148;DHT22;142;50.652;12.216;2023-02-01T07:42:37;5.60;34.20
148;DHT22;142;50.652;12.216;2023-02-01T07:45:05;5.60;34.40
148;DHT22;142;50.652;12.216;2023-02-01T07:47:34;5.60;34.30
148;DHT22;142;50.652;12.216;2023-02-01T07:50:01;5.60;34.40
148;DHT22;142;50.652;12.216;2023-02-01T07:52:28;5.60;34.20
148;DHT22;142;50.652;12.216;2023-02-01T07:54:55;5.70;34.20
148;DHT22;142;50.652;12.216;2023-02-01T07:57:22;5.70;34.30
148;DHT22;142;50.652;12.216;2023-02-01T07:59:49;5.70;34.20
148;DHT22;142;50.652;12.216;2023-02-01T08:02:35;5.80;34.50
148;DHT22;142;50.652;12.216;2023-02-01T08:05:03;5.80;34.10
148;DHT22;142;50.652;12.216;2023-02-01T08:07:31;5.90;34.10
148;DHT22;142;50.652;12.216;2023-02-01T08:09:58;6.00;34.20
148;DHT22;142;50.652;12.216;2023-02-01T08:12:25;6.00;34.20
148;DHT22;142;50.652;12.216;2023-02-01T08:14:53;6.10;34.20
148;DHT22;142;50.652;12.216;2023-02-01T08:17:22;6.20;34.00
148;DHT22;142;50.652;12.216;2023-02-01T08:19:50;6.10;34.00
148;DHT22;142;50.652;12.216;2023-02-01T08:22:17;6.10;34.10
148;DHT22;142;50.652;12.216;2023-02-01T08:24:47;6.00;34.10
148;DHT22;142;50.652;12.216;2023-02-01T08:27:14;6.10;34.10
148;DHT22;142;50.652;12.216;2023-02-01T08:29:41;6.10;34.20
148;DHT22;142;50.652;12.216;2023-02-01T08:32:08;6.10;34.30
148;DHT22;142;50.652;12.216;2023-02-01T08:34:35;6.10;34.00
148;DHT22;142;50.652;12.216;2023-02-01T08:37:04;6.20;34.40
148;DHT22;142;50.652;12.216;2023-02-01T08:39:32;6.20;34.40
148;DHT22;142;50.652;12.216;2023-02-01T08:42:00;6.20;34.40
148;DHT22;142;50.652;12.216;2023-02-01T08:44:44;6.20;34.20
148;DHT22;142;50.652;12.216;2023-02-01T08:47:12;6.30;34.20
148;DHT22;142;50.652;12.216;2023-02-01T08:49:39;6.30;34.00
148;DHT22;142;50.652;12.216;2023-02-01T08:52:08;6.20;34.40
148;DHT22;142;50.652;12.216;2023-02-01T08:54:35;6.30;34.00
148;DHT22;142;50.652;12.216;2023-02-01T08:57:03;6.30;34.10
148;DHT22;142;50.652;12.216;2023-02-01T08:59:30;6.30;34.10
148;DHT22;142;50.652;12.216;2023-02-01T09:01:57;6.30;33.80
148;DHT22;142;50.652;12.216;2023-02-01T09:04:24;6.30;34.30
148;DHT22;142;50.652;12.216;2023-02-01T09:06:51;6.20;33.80
148;DHT22;142;50.652;12.216;2023-02-01T09:09:22;6.20;34.10
148;DHT22;142;50.652;12.216;2023-02-01T09:11:49;6.30;34.10
148;DHT22;142;50.652;12.216;2023-02-01T09:14:17;6.30;33.90
148;DHT22;142;50.652;12.216;2023-02-01T09:16:44;6.30;34.00
148;DHT22;142;50.652;12.216;2023-02-01T09:19:11;6.30;33.70
148;DHT22;142;50.652;12.216;2023-02-01T09:21:38;6.20;33.40
148;DHT22;142;50.652;12.216;2023-02-01T09:24:06;6.10;33.50
148;DHT22;142;50.652;12.216;2023-02-01T09:26:35;5.90;33.30
148;DHT22;142;50.652;12.216;2023-02-01T09:29:03;5.70;33.60
148;DHT22;142;50.652;12.216;2023-02-01T09:31:32;5.70;33.60
148;DHT22;142;50.652;12.216;2023-02-01T09:33:59;5.70;33.60
148;DHT22;142;50.652;12.216;2023-02-01T09:36:26;5.70;34.10
148;DHT22;142;50.652;12.216;2023-02-01T09:38:53;5.70;34.20
148;DHT22;142;50.652;12.216;2023-02-01T09:41:30;5.70;34.10
148;DHT22;142;50.652;12.216;2023-02-01T09:44:07;5.70;34.00
148;DHT22;142;50.652;12.216;2023-02-01T09:46:35;5.70;34.10
148;DHT22;142;50.652;12.216;2023-02-01T09:49:05;5.80;34.00
148;DHT22;142;50.652;12.216;2023-02-01T09:51:38;5.80;34.00
148;DHT22;142;50.652;12.216;2023-02-01T09:54:11;6.00;33.80
148;DHT22;142;50.652;12.216;2023-02-01T09:56:44;6.00;34.10
148;DHT22;142;50.652;12.216;2023-02-01T09:59:26;6.20;33.90
148;DHT22;142;50.652;12.216;2023-02-01T10:01:56;6.30;34.10
148;DHT22;142;50.652;12.216;2023-02-01T10:04:25;6.40;33.80
148;DHT22;142;50.652;12.216;2023-02-01T10:07:05;6.50;33.50
148;DHT22;142;50.652;12.216;2023-02-01T10:09:59;6.60;33.70
148;DHT22;142;50.652;12.216;2023-02-01T10:12:44;6.60;33.80
148;DHT22;142;50.652;12.216;2023-02-01T10:15:24;6.70;33.90
148;DHT22;142;50.652;12.216;2023-02-01T10:20:51;6.80;33.60
148;DHT22;142;50.652;12.216;2023-02-01T10:23:32;6.80;33.80
148;DHT22;142;50.652;12.216;2023-02-01T10:26:12;7.00;33.70
148;DHT22;142;50.652;12.216;2023-02-01T10:28:46;7.20;34.00
148;DHT22;142;50.652;12.216;2023-02-01T10:31:17;7.10;33.80
148;DHT22;142;50.652;12.216;2023-02-01T10:33:47;7.10;33.60
148;DHT22;142;50.652;12.216;2023-02-01T10:36:21;7.10;33.40
148;DHT22;142;50.652;12.216;2023-02-01T10:38:50;7.00;33.70
148;DHT22;142;50.652;12.216;2023-02-01T10:41:19;6.80;33.70
148;DHT22;142;50.652;12.216;2023-02-01T10:43:50;6.90;33.60
148;DHT22;142;50.652;12.216;2023-02-01T10:46:20;6.90;33.90
148;DHT22;142;50.652;12.216;2023-02-01T10:48:48;6.80;33.60
148;DHT22;142;50.652;12.216;2023-02-01T10:51:21;6.90;33.40
148;DHT22;142;50.652;12.216;2023-02-01T10:53:53;6.80;33.90
148;DHT22;142;50.652;12.216;2023-02-01T10:56:23;6.80;33.40
148;DHT22;142;50.652;12.216;2023-02-01T10:58:59;6.80;33.70
148;DHT22;142;50.652;12.216;2023-02-01T11:01:33;6.90;33.40
148;DHT22;142;50.652;12.216;2023-02-01T11:04:02;6.90;33.60
148;DHT22;142;50.652;12.216;2023-02-01T11:06:33;7.00;33.70
148;DHT22;142;50.652;12.216;2023-02-01T11:09:11;6.90;34.00
148;DHT22;142;50.652;12.216;2023-02-01T11:11:55;6.90;33.60
148;DHT22;142;50.652;12.216;2023-02-01T11:14:34;7.00;33.70
148;DHT22;142;50.652;12.216;2023-02-01T11:17:18;7.00;33.80
148;DHT22;142;50.652;12.216;2023-02-01T11:19:57;6.90;33.50
148;DHT22;142;50.652;12.216;2023-02-01T11:22:25;6.90;33.50
148;DHT22;142;50.652;12.216;2023-02-01T11:24:55;6.90;33.90
148;DHT22;142;50.652;12.216;2023-02-01T11:27:24;6.90;33.30
148;DHT22;142;50.652;12.216;2023-02-01T11:29:56;7.00;33.50
148;DHT22;142;50.652;12.216;2023-02-01T11:32:27;7.00;33.80
148;DHT22;142;50.652;12.216;2023-02-01T11:34:57;7.00;33.30
148;DHT22;142;50.652;12.216;2023-02-01T11:37:30;7.00;33.50
148;DHT22;142;50.652;12.216;2023-02-01T11:39:59;7.20;33.70
148;DHT22;142;50.652;12.216;2023-02-01T11:42:27;7.20;33.60
148;DHT22;142;50.652;12.216;2023-02-01T11:45:17;7.40;33.50
148;DHT22;142;50.652;12.216;2023-02-01T11:47:46;7.50;34.40
148;DHT22;142;50.652;12.216;2023-02-01T11:50:22;7.50;34.00
148;DHT22;142;50.652;12.216;2023-02-01T11:53:02;7.50;33.60
148;DHT22;142;50.652;12.216;2023-02-01T11:55:55;7.40;34.30
148;DHT22;142;50.652;12.216;2023-02-01T11:58:37;7.30;34.30
148;DHT22;142;50.652;12.216;2023-02-01T12:01:17;7.30;34.40
148;DHT22;142;50.652;12.216;2023-02-01T12:03:59;7.40;34.50
148;DHT22;142;50.652;12.216;2023-02-01T12:06:38;7.50;34.80
148;DHT22;142;50.652;12.216;2023-02-01T12:09:26;7.50;34.80
148;DHT22;142;50.652;12.216;2023-02-01T12:12:01;7.40;33.90
148;DHT22;142;50.652;12.216;2023-02-01T12:14:42;7.30;34.40
148;DHT22;142;50.652;12.216;2023-02-01T12:17:28;7.30;34.40
148;DHT22;142;50.652;12.216;2023-02-01T12:20:14;7.30;35.30
148;DHT22;142;50.652;12.216;2023-02-01T12:22:55;7.30;35.00
148;DHT22;142;50.652;12.216;2023-02-01T12:25:33;7.40;34.80
148;DHT22;142;50.652;12.216;2023-02-01T12:28:25;7.50;34.80
148;DHT22;142;50.652;12.216;2023-02-01T12:31:19;7.40;34.50
148;DHT22;142;50.652;12.216;2023-02-01T12:34:05;7.40;34.50
148;DHT22;142;50.652;12.216;2023-02-01T12:36:42;7.50;34.60
148;DHT22;142;50.652;12.216;2023-02-01T12:39:21;7.40;34.60
148;DHT22;142;50.652;12.216;2023-02-01T12:41:54;7.40;34.90
148;DHT22;142;50.652;12.216;2023-02-01T12:44:33;7.30;35.00
148;DHT22;142;50.652;12.216;2023-02-01T12:47:05;7.30;34.60
148;DHT22;142;50.652;12.216;2023-02-01T12:49:43;7.40;34.70
148;DHT22;142;50.652;12.216;2023-02-01T12:52:17;7.40;34.70
148;DHT22;142;50.652;12.216;2023-02-01T12:54:48;7.40;34.90
148;DHT22;142;50.652;12.216;2023-02-01T12:57:23;7.30;34.90
148;DHT22;142;50.652;12.216;2023-02-01T12:59:55;7.30;34.70
148;DHT22;142;50.652;12.216;2023-02-01T13:02:29;7.30;34.80
148;DHT22;142;50.652;12.216;2023-02-01T13:05:11;7.40;35.00
148;DHT22;142;50.652;12.216;2023-02-01T13:07:45;7.40;34.70
148;DHT22;142;50.652;12.216;2023-02-01T13:10:16;7.40;34.90
148;DHT22;142;50.652;12.216;2023-02-01T13:12:50;7.40;35.20
148;DHT22;142;50.652;12.216;2023-02-01T13:15:23;7.50;35.00
148;DHT22;142;50.652;12.216;2023-02-01T13:17:54;7.40;34.90
148;DHT22;142;50.652;12.216;2023-02-01T13:20:25;7.30;35.10
148;DHT22;142;50.652;12.216;2023-02-01T13:22:59;7.30;35.50
148;DHT22;142;50.652;12.216;2023-02-01T13:25:33;7.30;35.00
148;DHT22;142;50.652;12.216;2023-02-01T13:28:05;7.30;35.30
148;DHT22;142;50.652;12.216;2023-02-01T13:30:49;7.40;35.20
148;DHT22;142;50.652;12.216;2023-02-01T13:33:42;7.30;35.20
148;DHT22;142;50.652;12.216;2023-02-01T13:36:38;7.30;35.30
148;DHT22;142;50.652;12.216;2023-02-01T13:42:15;7.20;35.80
148;DHT22;142;50.652;12.216;2023-02-01T13:44:45;7.30;35.50
148;DHT22;142;50.652;12.216;2023-02-01T13:47:21;7.20;35.10
148;DHT22;142;50.652;12.216;2023-02-01T13:49:50;7.20;35.30
148;DHT22;142;50.652;12.216;2023-02-01T13:52:32;7.10;34.90
148;DHT22;142;50.652;12.216;2023-02-01T13:55:14;7.10;35.50
148;DHT22;142;50.652;12.216;2023-02-01T13:57:45;7.10;35.10
148;DHT22;142;50.652;12.216;2023-02-01T14:00:27;7.10;34.70
148;DHT22;142;50.652;12.216;2023-02-01T14:03:15;7.10;35.20
148;DHT22;142;50.652;12.216;2023-02-01T14:06:14;7.20;35.00
148;DHT22;142;50.652;12.216;2023-02-01T14:11:41;7.20;35.20
148;DHT22;142;50.652;12.216;2023-02-01T14:14:42;7.20;34.90
148;DHT22;142;50.652;12.216;2023-02-01T14:17:34;7.20;34.90
148;DHT22;142;50.652;12.216;2023-02-01T14:23:28;7.20;39.80
148;DHT22;142;50.652;12.216;2023-02-01T14:26:28;7.20;41.50
148;DHT22;142;50.652;12.216;2023-02-01T14:29:22;7.30;44.10
148;DHT22;142;50.652;12.216;2023-02-01T14:31:58;7.30;46.30
148;DHT22;142;50.652;12.216;2023-02-01T14:34:35;7.30;50.60
148;DHT22;142;50.652;12.216;2023-02-01T14:37:11;7.40;53.70
148;DHT22;142;50.652;12.216;2023-02-01T14:39:56;7.40;54.80
148;DHT22;142;50.652;12.216;2023-02-01T14:42:29;7.40;55.80
148;DHT22;142;50.652;12.216;2023-02-01T14:51:02;7.20;57.90
148;DHT22;142;50.652;12.216;2023-02-01T14:53:33;7.10;59.00
148;DHT22;142;50.652;12.216;2023-02-01T14:56:06;7.10;59.50
148;DHT22;142;50.652;12.216;2023-02-01T14:58:40;7.20;60.10
148;DHT22;142;50.652;12.216;2023-02-01T15:01:18;7.10;59.70
148;DHT22;142;50.652;12.216;2023-02-01T15:03:51;7.20;60.70
148;DHT22;142;50.652;12.216;2023-02-01T15:06:36;7.10;60.90
148;DHT22;142;50.652;12.216;2023-02-01T15:09:08;7.20;60.30
148;DHT22;142;50.652;12.216;2023-02-01T15:11:54;7.20;61.40
148;DHT22;142;50.652;12.216;2023-02-01T15:14:24;7.20;60.70
148;DHT22;142;50.652;12.216;2023-02-01T15:16:52;7.20;61.30
148;DHT22;142;50.652;12.216;2023-02-01T15:19:21;7.10;61.60
148;DHT22;142;50.652;12.216;2023-02-01T15:21:49;7.20;61.20
148;DHT22;142;50.652;12.216;2023-02-01T15:24:22;7.10;62.10
148;DHT22;142;50.652;12.216;2023-02-01T15:26:49;7.10;61.80
148;DHT22;142;50.652;12.216;2023-02-01T15:29:17;7.10;63.40
148;DHT22;142;50.652;12.216;2023-02-01T15:31:47;7.00;63.30
148;DHT22;142;50.652;12.216;2023-02-01T15:34:16;7.10;63.40
148;DHT22;142;50.652;12.216;2023-02-01T15:36:44;7.10;63.80
148;DHT22;142;50.652;12.216;2023-02-01T15:39:20;7.10;63.30
148;DHT22;142;50.652;12.216;2023-02-01T15:41:53;7.10;63.50
148;DHT22;142;50.652;12.216;2023-02-01T15:44:32;7.10;63.20
148;DHT22;142;50.652;12.216;2023-02-01T15:47:06;7.00;63.60
148;DHT22;142;50.652;12.216;2023-02-01T15:49:37;7.00;63.30
148;DHT22;142;50.652;12.216;2023-02-01T15:52:22;7.00;62.90
148;DHT22;142;50.652;12.216;2023-02-01T15:54:53;7.00;63.10
148;DHT22;142;50.652;12.216;2023-02-01T15:57:23;7.00;63.10
148;DHT22;142;50.652;12.216;2023-02-01T15:59:57;7.00;62.80
148;DHT22;142;50.652;12.216;2023-02-01T16:02:28;7.00;62.30
148;DHT22;142;50.652;12.216;2023-02-01T16:05:00;7.00;62.20
148;DHT22;142;50.652;12.216;2023-02-01T16:07:29;7.00;62.00
148;DHT22;142;50.652;12.216;2023-02-01T16:09:58;6.90;61.70
148;DHT22;142;50.652;12.216;2023-02-01T16:12:33;6.90;60.60
148;DHT22;142;50.652;12.216;2023-02-01T16:15:02;6.80;58.50
148;DHT22;142;50.652;12.216;2023-02-01T16:17:31;6.70;56.90
148;DHT22;142;50.652;12.216;2023-02-01T16:19:58;6.60;55.50
148;DHT22;142;50.652;12.216;2023-02-01T16:22:25;6.60;54.90
148;DHT22;142;50.652;12.216;2023-02-01T16:24:53;6.60;54.00
148;DHT22;142;50.652;12.216;2023-02-01T16:27:20;6.60;54.90
148;DHT22;142;50.652;12.216;2023-02-01T16:29:47;6.60;55.30
148;DHT22;142;50.652;12.216;2023-02-01T16:32:17;6.70;55.00
148;DHT22;142;50.652;12.216;2023-02-01T16:34:47;6.70;55.20
148;DHT22;142;50.652;12.216;2023-02-01T16:37:17;6.80;54.90
148;DHT22;142;50.652;12.216;2023-02-01T16:39:46;6.80;56.10
148;DHT22;142;50.652;12.216;2023-02-01T16:42:15;6.70;56.50
148;DHT22;142;50.652;12.216;2023-02-01T16:44:43;6.70;55.40
148;DHT22;142;50.652;12.216;2023-02-01T16:47:14;6.70;53.80
148;DHT22;142;50.652;12.216;2023-02-01T16:49:43;6.60;51.00
148;DHT22;142;50.652;12.216;2023-02-01T16:52:15;6.60;49.40
148;DHT22;142;50.652;12.216;2023-02-01T16:54:43;6.50;48.70
148;DHT22;142;50.652;12.216;2023-02-01T16:57:15;6.40;48.10
148;DHT22;142;50.652;12.216;2023-02-01T16:59:42;6.40;46.90
148;DHT22;142;50.652;12.216;2023-02-01T17:02:12;6.40;46.90
148;DHT22;142;50.652;12.216;2023-02-01T17:04:39;6.40;48.50
148;DHT22;142;50.652;12.216;2023-02-01T17:07:10;6.40;48.70
148;DHT22;142;50.652;12.216;2023-02-01T17:09:40;6.50;49.30
148;DHT22;142;50.652;12.216;2023-02-01T17:12:08;6.60;50.00
148;DHT22;142;50.652;12.216;2023-02-01T17:14:39;6.60;50.60
148;DHT22;142;50.652;12.216;2023-02-01T17:17:08;6.60;51.90
148;DHT22;142;50.652;12.216;2023-02-01T17:19:36;6.70;52.90
148;DHT22;142;50.652;12.216;2023-02-01T17:22:03;6.70;54.10
148;DHT22;142;50.652;12.216;2023-02-01T17:24:31;6.80;54.00
148;DHT22;142;50.652;12.216;2023-02-01T17:27:00;6.80;54.10
148;DHT22;142;50.652;12.216;2023-02-01T17:29:30;6.80;53.50